sensor_id;sensor_type;location;lat;lon;timestamp;P1;durP1;ratioP1;P2;durP2;ratioP2
28844;SDS011;15976;47.938;7.758;2024-03-02T00:01:35;4.40;;;2.90;;
28844;SDS011;15976;47.938;7.758;2024-03-02T00:04:03;5.70;;;3.42;;
28844;SDS011;15976;47.938;7.758;2024-03-02T00:06:33;3.80;;;3.10;;
28844;SDS011;15976;47.938;7.758;2024-03-02T00:09:01;4.45;;;3.33;;
28844;SDS011;15976;47.938;7.758;2024-03-02T00:11:29;5.47;;;3.70;;
28844;SDS011;15976;47.938;7.758;2024-03-02T00:13:56;5.13;;;3.20;;
28844;SDS011;15976;47.938;7.758;2024-03-02T00:16:23;4.80;;;2.85;;
28844;SDS011;15976;47.938;7.758;2024-03-02T00:18:50;5.75;;;3.30;;
28844;SDS011;15976;47.938;7.758;2024-03-02T00:21:18;4.03;;;2.70;;
28844;SDS011;15976;47.938;7.758;2024-03-02T00:23:47;3.47;;;2.58;;
28844;SDS011;15976;47.938;7.758;2024-03-02T00:26:18;4.75;;;2.78;;
28844;SDS011;15976;47.938;7.758;2024-03-02T00:28:45;4.53;;;2.78;;
28844;SDS011;15976;47.938;7.758;2024-03-02T00:31:13;3.97;;;2.53;;
28844;SDS011;15976;47.938;7.758;2024-03-02T00:36:13;5.05;;;2.90;;
28844;SDS011;15976;47.938;7.758;2024-03-02T00:38:47;5.28;;;3.40;;
28844;SDS011;15976;47.938;7.758;2024-03-02T00:46:36;8.35;;;2.85;;
28844;SDS011;15976;47.938;7.758;2024-03-02T00:49:04;4.90;;;3.03;;
28844;SDS011;15976;47.938;7.758;2024-03-02T00:54:05;5.55;;;3.67;;
28844;SDS011;15976;47.938;7.758;2024-03-02T00:56:34;7.88;;;4.75;;
28844;SDS011;15976;47.938;7.758;2024-03-02T00:59:01;5.03;;;3.40;;
28844;SDS011;15976;47.938;7.758;2024-03-02T01:01:29;5.65;;;3.17;;
28844;SDS011;15976;47.938;7.758;2024-03-02T01:03:56;3.60;;;2.78;;
28844;SDS011;15976;47.938;7.758;2024-03-02T01:06:23;3.20;;;2.85;;
28844;SDS011;15976;47.938;7.758;2024-03-02T01:08:50;4.97;;;2.55;;
28844;SDS011;15976;47.938;7.758;2024-03-02T01:11:19;3.70;;;2.78;;
28844;SDS011;15976;47.938;7.758;2024-03-02T01:13:49;3.88;;;3.13;;
28844;SDS011;15976;47.938;7.758;2024-03-02T01:16:16;4.72;;;3.00;;
28844;SDS011;15976;47.938;7.758;2024-03-02T01:18:44;4.65;;;3.50;;
28844;SDS011;15976;47.938;7.758;2024-03-02T01:21:11;6.85;;;4.40;;
28844;SDS011;15976;47.938;7.758;2024-03-02T01:23:38;4.50;;;3.45;;
28844;SDS011;15976;47.938;7.758;2024-03-02T01:26:05;7.82;;;4.22;;
28844;SDS011;15976;47.938;7.758;2024-03-02T01:28:33;7.43;;;4.75;;
28844;SDS011;15976;47.938;7.758;2024-03-02T01:31:00;4.05;;;3.45;;
28844;SDS011;15976;47.938;7.758;2024-03-02T01:33:28;4.82;;;3.10;;
28844;SDS011;15976;47.938;7.758;2024-03-02T01:35:55;3.60;;;2.75;;
28844;SDS011;15976;47.938;7.758;2024-03-02T01:38:22;4.53;;;3.70;;
28844;SDS011;15976;47.938;7.758;2024-03-02T01:40:49;4.13;;;3.72;;
28844;SDS011;15976;47.938;7.758;2024-03-02T01:43:18;4.30;;;3.30;;
28844;SDS011;15976;47.938;7.758;2024-03-02T01:45:46;4.75;;;3.65;;
28844;SDS011;15976;47.938;7.758;2024-03-02T01:48:13;4.35;;;2.80;;
28844;SDS011;15976;47.938;7.758;2024-03-02T01:50:40;4.32;;;2.45;;
28844;SDS011;15976;47.938;7.758;2024-03-02T01:53:07;3.03;;;2.15;;
28844;SDS011;15976;47.938;7.758;2024-03-02T01:55:36;2.45;;;2.25;;
28844;SDS011;15976;47.938;7.758;2024-03-02T01:58:03;3.95;;;2.80;;
28844;SDS011;15976;47.938;7.758;2024-03-02T02:00:30;2.78;;;2.30;;
28844;SDS011;15976;47.938;7.758;2024-03-02T02:02:58;6.65;;;2.92;;
28844;SDS011;15976;47.938;7.758;2024-03-02T02:05:25;4.55;;;3.33;;
28844;SDS011;15976;47.938;7.758;2024-03-02T02:07:52;3.53;;;2.80;;
28844;SDS011;15976;47.938;7.758;2024-03-02T02:10:19;8.43;;;3.28;;
28844;SDS011;15976;47.938;7.758;2024-03-02T02:12:47;4.95;;;3.25;;
28844;SDS011;15976;47.938;7.758;2024-03-02T02:15:23;5.72;;;3.63;;
28844;SDS011;15976;47.938;7.758;2024-03-02T02:17:57;4.43;;;3.17;;
28844;SDS011;15976;47.938;7.758;2024-03-02T02:20:25;3.80;;;2.75;;
28844;SDS011;15976;47.938;7.758;2024-03-02T02:23:02;3.45;;;2.72;;
28844;SDS011;15976;47.938;7.758;2024-03-02T02:25:32;2.83;;;2.35;;
28844;SDS011;15976;47.938;7.758;2024-03-02T02:27:59;4.07;;;2.67;;
28844;SDS011;15976;47.938;7.758;2024-03-02T02:30:27;4.10;;;2.80;;
28844;SDS011;15976;47.938;7.758;2024-03-02T02:32:55;4.65;;;2.55;;
28844;SDS011;15976;47.938;7.758;2024-03-02T02:35:23;4.32;;;2.88;;
28844;SDS011;15976;47.938;7.758;2024-03-02T02:37:51;5.30;;;3.13;;
28844;SDS011;15976;47.938;7.758;2024-03-02T02:40:20;6.85;;;4.00;;
28844;SDS011;15976;47.938;7.758;2024-03-02T02:42:47;5.60;;;3.53;;
28844;SDS011;15976;47.938;7.758;2024-03-02T02:45:14;6.35;;;3.80;;
28844;SDS011;15976;47.938;7.758;2024-03-02T02:47:42;5.70;;;3.80;;
28844;SDS011;15976;47.938;7.758;2024-03-02T02:50:10;5.32;;;3.13;;
28844;SDS011;15976;47.938;7.758;2024-03-02T02:52:38;4.35;;;2.88;;
28844;SDS011;15976;47.938;7.758;2024-03-02T02:55:07;5.57;;;2.88;;
28844;SDS011;15976;47.938;7.758;2024-03-02T02:57:39;4.97;;;2.92;;
28844;SDS011;15976;47.938;7.758;2024-03-02T03:00:10;3.35;;;2.83;;
28844;SDS011;15976;47.938;7.758;2024-03-02T03:02:44;2.92;;;2.45;;
28844;SDS011;15976;47.938;7.758;2024-03-02T03:05:14;3.75;;;2.70;;
28844;SDS011;15976;47.938;7.758;2024-03-02T03:07:42;3.95;;;2.85;;
28844;SDS011;15976;47.938;7.758;2024-03-02T03:10:11;4.68;;;3.60;;
28844;SDS011;15976;47.938;7.758;2024-03-02T03:12:38;5.15;;;3.80;;
28844;SDS011;15976;47.938;7.758;2024-03-02T03:15:07;6.05;;;3.95;;
28844;SDS011;15976;47.938;7.758;2024-03-02T03:17:35;5.45;;;3.97;;
28844;SDS011;15976;47.938;7.758;2024-03-02T03:20:04;4.05;;;3.60;;
28844;SDS011;15976;47.938;7.758;2024-03-02T03:22:32;4.25;;;3.20;;
28844;SDS011;15976;47.938;7.758;2024-03-02T03:24:59;5.15;;;3.47;;
28844;SDS011;15976;47.938;7.758;2024-03-02T03:27:27;5.38;;;3.65;;
28844;SDS011;15976;47.938;7.758;2024-03-02T03:29:54;4.45;;;3.17;;
28844;SDS011;15976;47.938;7.758;2024-03-02T03:32:21;5.50;;;3.53;;
28844;SDS011;15976;47.938;7.758;2024-03-02T03:34:49;5.38;;;3.85;;
28844;SDS011;15976;47.938;7.758;2024-03-02T03:37:16;5.95;;;4.10;;
28844;SDS011;15976;47.938;7.758;2024-03-02T03:39:43;7.25;;;4.53;;
28844;SDS011;15976;47.938;7.758;2024-03-02T03:42:10;7.40;;;4.40;;
28844;SDS011;15976;47.938;7.758;2024-03-02T03:44:37;4.60;;;3.72;;
28844;SDS011;15976;47.938;7.758;2024-03-02T03:47:05;4.18;;;3.33;;
28844;SDS011;15976;47.938;7.758;2024-03-02T03:49:33;4.65;;;3.58;;
28844;SDS011;15976;47.938;7.758;2024-03-02T03:52:00;4.75;;;3.20;;
28844;SDS011;15976;47.938;7.758;2024-03-02T03:54:26;4.35;;;3.20;;
28844;SDS011;15976;47.938;7.758;2024-03-02T03:56:53;7.10;;;3.70;;
28844;SDS011;15976;47.938;7.758;2024-03-02T03:59:20;6.15;;;4.05;;
28844;SDS011;15976;47.938;7.758;2024-03-02T04:01:47;5.10;;;3.45;;
28844;SDS011;15976;47.938;7.758;2024-03-02T04:04:15;4.95;;;3.22;;
28844;SDS011;15976;47.938;7.758;2024-03-02T04:06:42;7.55;;;3.17;;
28844;SDS011;15976;47.938;7.758;2024-03-02T04:09:09;5.78;;;3.40;;
28844;SDS011;15976;47.938;7.758;2024-03-02T04:11:36;3.35;;;2.65;;
28844;SDS011;15976;47.938;7.758;2024-03-02T04:14:03;3.80;;;2.90;;
28844;SDS011;15976;47.938;7.758;2024-03-02T04:16:32;4.18;;;2.92;;
28844;SDS011;15976;47.938;7.758;2024-03-02T04:18:59;3.72;;;2.35;;
28844;SDS011;15976;47.938;7.758;2024-03-02T04:21:27;8.55;;;3.13;;
28844;SDS011;15976;47.938;7.758;2024-03-02T04:23:54;4.28;;;2.78;;
28844;SDS011;15976;47.938;7.758;2024-03-02T04:26:25;2.97;;;2.45;;
28844;SDS011;15976;47.938;7.758;2024-03-02T04:28:52;3.63;;;2.60;;
28844;SDS011;15976;47.938;7.758;2024-03-02T04:31:20;3.28;;;2.35;;
28844;SDS011;15976;47.938;7.758;2024-03-02T04:33:48;4.07;;;3.08;;
28844;SDS011;15976;47.938;7.758;2024-03-02T04:36:15;3.72;;;2.78;;
28844;SDS011;15976;47.938;7.758;2024-03-02T04:38:42;6.85;;;2.80;;
28844;SDS011;15976;47.938;7.758;2024-03-02T04:41:09;4.90;;;3.72;;
28844;SDS011;15976;47.938;7.758;2024-03-02T04:43:36;3.78;;;3.38;;
28844;SDS011;15976;47.938;7.758;2024-03-02T04:46:05;7.13;;;4.30;;
28844;SDS011;15976;47.938;7.758;2024-03-02T04:48:33;4.82;;;3.55;;
28844;SDS011;15976;47.938;7.758;2024-03-02T04:51:00;8.20;;;3.78;;
28844;SDS011;15976;47.938;7.758;2024-03-02T04:53:28;4.03;;;3.38;;
28844;SDS011;15976;47.938;7.758;2024-03-02T04:55:55;4.60;;;3.40;;
28844;SDS011;15976;47.938;7.758;2024-03-02T04:58:22;5.15;;;3.42;;
28844;SDS011;15976;47.938;7.758;2024-03-02T05:00:49;6.15;;;2.95;;
28844;SDS011;15976;47.938;7.758;2024-03-02T05:03:17;4.55;;;3.10;;
28844;SDS011;15976;47.938;7.758;2024-03-02T05:05:44;5.32;;;4.10;;
28844;SDS011;15976;47.938;7.758;2024-03-02T05:08:11;5.78;;;4.05;;
28844;SDS011;15976;47.938;7.758;2024-03-02T05:10:38;6.85;;;4.05;;
28844;SDS011;15976;47.938;7.758;2024-03-02T05:13:05;3.50;;;2.80;;
28844;SDS011;15976;47.938;7.758;2024-03-02T05:15:32;4.18;;;3.22;;
28844;SDS011;15976;47.938;7.758;2024-03-02T05:18:00;6.15;;;3.90;;
28844;SDS011;15976;47.938;7.758;2024-03-02T05:20:29;6.47;;;4.53;;
28844;SDS011;15976;47.938;7.758;2024-03-02T05:22:56;7.07;;;4.80;;
28844;SDS011;15976;47.938;7.758;2024-03-02T05:25:23;8.75;;;5.47;;
28844;SDS011;15976;47.938;7.758;2024-03-02T05:27:50;10.20;;;5.68;;
28844;SDS011;15976;47.938;7.758;2024-03-02T05:30:17;8.25;;;4.90;;
28844;SDS011;15976;47.938;7.758;2024-03-02T05:32:45;9.38;;;5.60;;
28844;SDS011;15976;47.938;7.758;2024-03-02T05:35:12;8.02;;;5.18;;
28844;SDS011;15976;47.938;7.758;2024-03-02T05:37:39;6.50;;;4.35;;
28844;SDS011;15976;47.938;7.758;2024-03-02T05:40:06;6.18;;;4.03;;
28844;SDS011;15976;47.938;7.758;2024-03-02T05:42:34;4.28;;;3.55;;
28844;SDS011;15976;47.938;7.758;2024-03-02T05:45:01;6.45;;;4.07;;
28844;SDS011;15976;47.938;7.758;2024-03-02T05:47:28;6.13;;;4.10;;
28844;SDS011;15976;47.938;7.758;2024-03-02T05:49:55;5.75;;;3.80;;
28844;SDS011;15976;47.938;7.758;2024-03-02T05:52:22;7.15;;;4.07;;
28844;SDS011;15976;47.938;7.758;2024-03-02T05:54:49;7.53;;;3.92;;
28844;SDS011;15976;47.938;7.758;2024-03-02T05:57:16;7.20;;;4.13;;
28844;SDS011;15976;47.938;7.758;2024-03-02T05:59:49;7.72;;;4.38;;
28844;SDS011;15976;47.938;7.758;2024-03-02T06:02:16;5.22;;;3.90;;
28844;SDS011;15976;47.938;7.758;2024-03-02T06:04:43;8.20;;;4.25;;
28844;SDS011;15976;47.938;7.758;2024-03-02T06:07:10;9.70;;;3.70;;
28844;SDS011;15976;47.938;7.758;2024-03-02T06:09:37;8.65;;;5.40;;
28844;SDS011;15976;47.938;7.758;2024-03-02T06:12:04;16.85;;;6.57;;
28844;SDS011;15976;47.938;7.758;2024-03-02T06:14:32;9.50;;;5.80;;
28844;SDS011;15976;47.938;7.758;2024-03-02T06:16:59;11.40;;;5.80;;
28844;SDS011;15976;47.938;7.758;2024-03-02T06:19:26;12.70;;;5.60;;
28844;SDS011;15976;47.938;7.758;2024-03-02T06:21:54;11.88;;;6.22;;
28844;SDS011;15976;47.938;7.758;2024-03-02T06:24:21;10.15;;;5.40;;
28844;SDS011;15976;47.938;7.758;2024-03-02T06:26:48;10.88;;;6.88;;
28844;SDS011;15976;47.938;7.758;2024-03-02T06:29:15;7.65;;;6.13;;
28844;SDS011;15976;47.938;7.758;2024-03-02T06:31:43;8.05;;;5.60;;
28844;SDS011;15976;47.938;7.758;2024-03-02T06:34:10;9.35;;;6.15;;
28844;SDS011;15976;47.938;7.758;2024-03-02T06:36:38;9.00;;;6.30;;
28844;SDS011;15976;47.938;7.758;2024-03-02T06:39:06;8.57;;;6.13;;
28844;SDS011;15976;47.938;7.758;2024-03-02T06:41:34;11.40;;;6.18;;
28844;SDS011;15976;47.938;7.758;2024-03-02T06:44:01;9.10;;;5.35;;
28844;SDS011;15976;47.938;7.758;2024-03-02T06:46:29;9.40;;;5.65;;
28844;SDS011;15976;47.938;7.758;2024-03-02T06:48:56;8.05;;;5.38;;
28844;SDS011;15976;47.938;7.758;2024-03-02T06:51:23;8.02;;;5.65;;
28844;SDS011;15976;47.938;7.758;2024-03-02T06:53:50;9.85;;;5.53;;
28844;SDS011;15976;47.938;7.758;2024-03-02T06:56:17;6.15;;;4.32;;
28844;SDS011;15976;47.938;7.758;2024-03-02T06:58:44;7.07;;;4.88;;
28844;SDS011;15976;47.938;7.758;2024-03-02T07:01:11;7.18;;;4.93;;
28844;SDS011;15976;47.938;7.758;2024-03-02T07:03:38;8.73;;;5.00;;
28844;SDS011;15976;47.938;7.758;2024-03-02T07:06:06;8.05;;;5.32;;
28844;SDS011;15976;47.938;7.758;2024-03-02T07:08:33;5.15;;;4.30;;
28844;SDS011;15976;47.938;7.758;2024-03-02T07:11:00;13.00;;;5.75;;
28844;SDS011;15976;47.938;7.758;2024-03-02T07:13:30;8.98;;;5.70;;
28844;SDS011;15976;47.938;7.758;2024-03-02T07:15:58;7.85;;;5.60;;
28844;SDS011;15976;47.938;7.758;2024-03-02T07:18:37;7.28;;;4.55;;
28844;SDS011;15976;47.938;7.758;2024-03-02T07:21:08;7.30;;;5.13;;
28844;SDS011;15976;47.938;7.758;2024-03-02T07:23:35;8.60;;;5.63;;
28844;SDS011;15976;47.938;7.758;2024-03-02T07:26:02;8.10;;;4.57;;
28844;SDS011;15976;47.938;7.758;2024-03-02T07:28:32;7.45;;;5.60;;
28844;SDS011;15976;47.938;7.758;2024-03-02T07:31:03;9.55;;;5.55;;
28844;SDS011;15976;47.938;7.758;2024-03-02T07:33:31;6.57;;;4.20;;
28844;SDS011;15976;47.938;7.758;2024-03-02T07:35:59;10.55;;;7.18;;
28844;SDS011;15976;47.938;7.758;2024-03-02T07:38:30;9.52;;;6.82;;
28844;SDS011;15976;47.938;7.758;2024-03-02T07:40:58;18.70;;;9.57;;
28844;SDS011;15976;47.938;7.758;2024-03-02T07:43:26;17.98;;;11.00;;
28844;SDS011;15976;47.938;7.758;2024-03-02T07:45:54;13.43;;;7.80;;
28844;SDS011;15976;47.938;7.758;2024-03-02T07:48:22;12.68;;;8.02;;
28844;SDS011;15976;47.938;7.758;2024-03-02T07:50:49;12.18;;;8.30;;
28844;SDS011;15976;47.938;7.758;2024-03-02T07:53:16;15.90;;;8.55;;
28844;SDS011;15976;47.938;7.758;2024-03-02T07:55:43;15.88;;;7.88;;
28844;SDS011;15976;47.938;7.758;2024-03-02T07:58:10;8.75;;;5.30;;
28844;SDS011;15976;47.938;7.758;2024-03-02T08:00:41;13.40;;;7.40;;
28844;SDS011;15976;47.938;7.758;2024-03-02T08:03:08;14.13;;;8.85;;
28844;SDS011;15976;47.938;7.758;2024-03-02T08:05:38;16.85;;;8.60;;
28844;SDS011;15976;47.938;7.758;2024-03-02T08:08:05;5.43;;;2.35;;
28844;SDS011;15976;47.938;7.758;2024-03-02T08:10:32;4.00;;;2.70;;
28844;SDS011;15976;47.938;7.758;2024-03-02T08:13:00;2.53;;;1.40;;
28844;SDS011;15976;47.938;7.758;2024-03-02T08:15:27;3.38;;;1.70;;
28844;SDS011;15976;47.938;7.758;2024-03-02T08:17:54;1.77;;;1.30;;
28844;SDS011;15976;47.938;7.758;2024-03-02T08:20:22;4.50;;;1.17;;
28844;SDS011;15976;47.938;7.758;2024-03-02T08:22:50;5.88;;;3.03;;
28844;SDS011;15976;47.938;7.758;2024-03-02T08:25:17;8.55;;;4.78;;
28844;SDS011;15976;47.938;7.758;2024-03-02T08:27:47;2.30;;;1.63;;
28844;SDS011;15976;47.938;7.758;2024-03-02T08:30:14;5.55;;;1.75;;
28844;SDS011;15976;47.938;7.758;2024-03-02T08:32:41;2.45;;;1.35;;
28844;SDS011;15976;47.938;7.758;2024-03-02T08:35:08;3.30;;;1.65;;
28844;SDS011;15976;47.938;7.758;2024-03-02T08:37:37;3.00;;;1.30;;
28844;SDS011;15976;47.938;7.758;2024-03-02T08:40:07;2.83;;;2.17;;
28844;SDS011;15976;47.938;7.758;2024-03-02T08:42:34;4.35;;;1.58;;
28844;SDS011;15976;47.938;7.758;2024-03-02T08:45:02;1.73;;;1.20;;
28844;SDS011;15976;47.938;7.758;2024-03-02T08:47:29;1.67;;;1.58;;
28844;SDS011;15976;47.938;7.758;2024-03-02T08:49:57;3.00;;;1.50;;
28844;SDS011;15976;47.938;7.758;2024-03-02T08:52:27;1.85;;;1.42;;
28844;SDS011;15976;47.938;7.758;2024-03-02T08:54:54;1.77;;;1.20;;
28844;SDS011;15976;47.938;7.758;2024-03-02T08:57:21;5.60;;;4.13;;
28844;SDS011;15976;47.938;7.758;2024-03-02T08:59:48;8.95;;;5.93;;
28844;SDS011;15976;47.938;7.758;2024-03-02T09:02:15;31.90;;;16.63;;
28844;SDS011;15976;47.938;7.758;2024-03-02T09:04:42;24.27;;;12.80;;
28844;SDS011;15976;47.938;7.758;2024-03-02T09:07:10;27.30;;;10.00;;
28844;SDS011;15976;47.938;7.758;2024-03-02T09:09:37;15.02;;;10.27;;
28844;SDS011;15976;47.938;7.758;2024-03-02T09:12:05;10.65;;;6.63;;
28844;SDS011;15976;47.938;7.758;2024-03-02T09:14:34;4.85;;;3.72;;
28844;SDS011;15976;47.938;7.758;2024-03-02T09:17:03;12.05;;;7.90;;
28844;SDS011;15976;47.938;7.758;2024-03-02T09:19:30;5.38;;;3.40;;
28844;SDS011;15976;47.938;7.758;2024-03-02T09:21:59;5.40;;;4.07;;
28844;SDS011;15976;47.938;7.758;2024-03-02T09:24:28;6.47;;;3.65;;
28844;SDS011;15976;47.938;7.758;2024-03-02T09:26:55;4.40;;;3.10;;
28844;SDS011;15976;47.938;7.758;2024-03-02T09:29:22;4.25;;;3.40;;
28844;SDS011;15976;47.938;7.758;2024-03-02T09:31:49;6.28;;;3.95;;
28844;SDS011;15976;47.938;7.758;2024-03-02T09:34:17;5.57;;;3.60;;
28844;SDS011;15976;47.938;7.758;2024-03-02T09:36:44;4.20;;;3.30;;
28844;SDS011;15976;47.938;7.758;2024-03-02T09:39:11;5.18;;;3.20;;
28844;SDS011;15976;47.938;7.758;2024-03-02T09:41:38;4.63;;;3.25;;
28844;SDS011;15976;47.938;7.758;2024-03-02T09:44:06;4.40;;;3.30;;
28844;SDS011;15976;47.938;7.758;2024-03-02T09:46:33;6.18;;;2.80;;
28844;SDS011;15976;47.938;7.758;2024-03-02T09:49:02;5.35;;;2.83;;
28844;SDS011;15976;47.938;7.758;2024-03-02T09:51:29;4.60;;;2.75;;
28844;SDS011;15976;47.938;7.758;2024-03-02T09:53:56;5.20;;;2.63;;
28844;SDS011;15976;47.938;7.758;2024-03-02T09:56:42;2.70;;;1.98;;
28844;SDS011;15976;47.938;7.758;2024-03-02T09:59:10;4.20;;;2.50;;
28844;SDS011;15976;47.938;7.758;2024-03-02T10:01:39;2.45;;;2.10;;
28844;SDS011;15976;47.938;7.758;2024-03-02T10:04:21;3.17;;;2.50;;
28844;SDS011;15976;47.938;7.758;2024-03-02T10:06:49;3.30;;;2.13;;
28844;SDS011;15976;47.938;7.758;2024-03-02T10:09:26;2.13;;;1.63;;
28844;SDS011;15976;47.938;7.758;2024-03-02T10:12:03;3.83;;;1.80;;
28844;SDS011;15976;47.938;7.758;2024-03-02T10:14:31;3.90;;;2.60;;
28844;SDS011;15976;47.938;7.758;2024-03-02T10:17:02;5.60;;;2.20;;
28844;SDS011;15976;47.938;7.758;2024-03-02T10:19:34;3.00;;;2.17;;
28844;SDS011;15976;47.938;7.758;2024-03-02T10:22:04;2.92;;;1.90;;
28844;SDS011;15976;47.938;7.758;2024-03-02T10:24:38;3.28;;;1.98;;
28844;SDS011;15976;47.938;7.758;2024-03-02T10:27:15;2.33;;;1.60;;
28844;SDS011;15976;47.938;7.758;2024-03-02T10:29:45;3.55;;;1.50;;
28844;SDS011;15976;47.938;7.758;2024-03-02T10:32:13;2.00;;;1.80;;
28844;SDS011;15976;47.938;7.758;2024-03-02T10:34:42;2.70;;;1.58;;
28844;SDS011;15976;47.938;7.758;2024-03-02T10:37:11;2.35;;;1.80;;
28844;SDS011;15976;47.938;7.758;2024-03-02T10:39:39;12.63;;;7.72;;
28844;SDS011;15976;47.938;7.758;2024-03-02T10:42:08;3.97;;;1.60;;
28844;SDS011;15976;47.938;7.758;2024-03-02T10:44:35;10.55;;;6.43;;
28844;SDS011;15976;47.938;7.758;2024-03-02T10:47:03;10.82;;;6.85;;
28844;SDS011;15976;47.938;7.758;2024-03-02T10:49:31;5.30;;;3.33;;
28844;SDS011;15976;47.938;7.758;2024-03-02T10:52:00;5.63;;;2.63;;
28844;SDS011;15976;47.938;7.758;2024-03-02T10:54:28;5.93;;;3.08;;
28844;SDS011;15976;47.938;7.758;2024-03-02T10:57:04;7.72;;;4.85;;
28844;SDS011;15976;47.938;7.758;2024-03-02T10:59:34;3.30;;;2.30;;
28844;SDS011;15976;47.938;7.758;2024-03-02T11:02:04;2.25;;;2.00;;
28844;SDS011;15976;47.938;7.758;2024-03-02T11:04:34;3.15;;;2.20;;
28844;SDS011;15976;47.938;7.758;2024-03-02T11:07:02;7.40;;;4.40;;
28844;SDS011;15976;47.938;7.758;2024-03-02T11:09:33;3.95;;;2.40;;
28844;SDS011;15976;47.938;7.758;2024-03-02T11:14:53;3.25;;;1.63;;
28844;SDS011;15976;47.938;7.758;2024-03-02T11:17:22;2.25;;;1.60;;
28844;SDS011;15976;47.938;7.758;2024-03-02T11:19:51;4.18;;;1.75;;
28844;SDS011;15976;47.938;7.758;2024-03-02T11:22:19;2.20;;;1.60;;
28844;SDS011;15976;47.938;7.758;2024-03-02T11:24:49;1.90;;;1.40;;
28844;SDS011;15976;47.938;7.758;2024-03-02T11:27:58;1.83;;;1.42;;
28844;SDS011;15976;47.938;7.758;2024-03-02T11:30:55;2.20;;;1.40;;
28844;SDS011;15976;47.938;7.758;2024-03-02T11:33:08;4.30;;;1.73;;
28844;SDS011;15976;47.938;7.758;2024-03-02T11:35:41;9.70;;;4.82;;
28844;SDS011;15976;47.938;7.758;2024-03-02T11:38:09;2.50;;;1.77;;
28844;SDS011;15976;47.938;7.758;2024-03-02T11:40:38;2.55;;;2.00;;
28844;SDS011;15976;47.938;7.758;2024-03-02T11:43:06;23.30;;;8.45;;
28844;SDS011;15976;47.938;7.758;2024-03-02T11:45:35;2.88;;;2.00;;
28844;SDS011;15976;47.938;7.758;2024-03-02T11:48:07;1.73;;;1.42;;
28844;SDS011;15976;47.938;7.758;2024-03-02T11:50:40;1.83;;;1.42;;
28844;SDS011;15976;47.938;7.758;2024-03-02T11:53:15;6.07;;;2.90;;
28844;SDS011;15976;47.938;7.758;2024-03-02T11:55:43;3.72;;;1.98;;
28844;SDS011;15976;47.938;7.758;2024-03-02T11:58:15;2.40;;;1.65;;
28844;SDS011;15976;47.938;7.758;2024-03-02T12:00:44;4.28;;;2.10;;
28844;SDS011;15976;47.938;7.758;2024-03-02T12:03:15;3.78;;;2.03;;
28844;SDS011;15976;47.938;7.758;2024-03-02T12:05:42;4.97;;;1.90;;
28844;SDS011;15976;47.938;7.758;2024-03-02T12:08:11;1.95;;;1.17;;
28844;SDS011;15976;47.938;7.758;2024-03-02T12:10:39;2.15;;;1.20;;
28844;SDS011;15976;47.938;7.758;2024-03-02T12:13:06;3.65;;;1.50;;
28844;SDS011;15976;47.938;7.758;2024-03-02T12:15:34;2.38;;;1.30;;
28844;SDS011;15976;47.938;7.758;2024-03-02T12:18:06;4.25;;;2.13;;
28844;SDS011;15976;47.938;7.758;2024-03-02T12:20:33;5.10;;;1.50;;
28844;SDS011;15976;47.938;7.758;2024-03-02T12:23:01;3.00;;;1.30;;
28844;SDS011;15976;47.938;7.758;2024-03-02T12:25:31;2.85;;;1.23;;
28844;SDS011;15976;47.938;7.758;2024-03-02T12:28:00;1.70;;;1.17;;
28844;SDS011;15976;47.938;7.758;2024-03-02T12:30:29;1.88;;;1.20;;
28844;SDS011;15976;47.938;7.758;2024-03-02T12:32:57;2.60;;;1.30;;
28844;SDS011;15976;47.938;7.758;2024-03-02T12:35:25;1.90;;;1.20;;
28844;SDS011;15976;47.938;7.758;2024-03-02T12:37:52;2.50;;;1.40;;
28844;SDS011;15976;47.938;7.758;2024-03-02T12:40:20;1.30;;;0.93;;
28844;SDS011;15976;47.938;7.758;2024-03-02T12:42:49;4.10;;;1.92;;
28844;SDS011;15976;47.938;7.758;2024-03-02T12:45:18;4.07;;;2.20;;
28844;SDS011;15976;47.938;7.758;2024-03-02T12:47:52;2.30;;;1.48;;
28844;SDS011;15976;47.938;7.758;2024-03-02T12:50:20;11.90;;;6.90;;
28844;SDS011;15976;47.938;7.758;2024-03-02T12:52:54;3.28;;;1.60;;
28844;SDS011;15976;47.938;7.758;2024-03-02T12:55:22;4.90;;;1.50;;
28844;SDS011;15976;47.938;7.758;2024-03-02T12:57:50;4.47;;;2.25;;
28844;SDS011;15976;47.938;7.758;2024-03-02T13:00:19;4.97;;;3.22;;
28844;SDS011;15976;47.938;7.758;2024-03-02T13:02:48;1.90;;;1.50;;
28844;SDS011;15976;47.938;7.758;2024-03-02T13:05:18;2.05;;;1.10;;
28844;SDS011;15976;47.938;7.758;2024-03-02T13:07:49;2.08;;;1.10;;
28844;SDS011;15976;47.938;7.758;2024-03-02T13:10:17;1.67;;;1.00;;
28844;SDS011;15976;47.938;7.758;2024-03-02T13:12:45;1.15;;;1.00;;
28844;SDS011;15976;47.938;7.758;2024-03-02T13:15:13;1.27;;;1.10;;
28844;SDS011;15976;47.938;7.758;2024-03-02T13:17:46;3.63;;;1.20;;
28844;SDS011;15976;47.938;7.758;2024-03-02T13:20:14;2.92;;;1.30;;
28844;SDS011;15976;47.938;7.758;2024-03-02T13:22:42;1.65;;;1.17;;
28844;SDS011;15976;47.938;7.758;2024-03-02T13:25:09;2.22;;;1.20;;
28844;SDS011;15976;47.938;7.758;2024-03-02T13:27:38;1.58;;;1.27;;
28844;SDS011;15976;47.938;7.758;2024-03-02T13:30:06;1.80;;;1.48;;
28844;SDS011;15976;47.938;7.758;2024-03-02T13:32:36;2.53;;;1.50;;
28844;SDS011;15976;47.938;7.758;2024-03-02T13:35:03;2.50;;;1.40;;
28844;SDS011;15976;47.938;7.758;2024-03-02T13:37:31;3.25;;;1.77;;
28844;SDS011;15976;47.938;7.758;2024-03-02T13:39:58;2.03;;;1.30;;
28844;SDS011;15976;47.938;7.758;2024-03-02T13:42:26;2.63;;;1.60;;
28844;SDS011;15976;47.938;7.758;2024-03-02T13:44:54;2.78;;;1.60;;
28844;SDS011;15976;47.938;7.758;2024-03-02T13:47:21;1.80;;;1.42;;
28844;SDS011;15976;47.938;7.758;2024-03-02T13:49:48;2.42;;;1.77;;
28844;SDS011;15976;47.938;7.758;2024-03-02T13:52:15;2.20;;;2.00;;
28844;SDS011;15976;47.938;7.758;2024-03-02T13:54:44;2.28;;;1.70;;
28844;SDS011;15976;47.938;7.758;2024-03-02T13:57:14;1.70;;;1.40;;
28844;SDS011;15976;47.938;7.758;2024-03-02T13:59:42;1.55;;;1.10;;
28844;SDS011;15976;47.938;7.758;2024-03-02T14:02:10;2.90;;;1.17;;
28844;SDS011;15976;47.938;7.758;2024-03-02T14:04:39;2.13;;;1.40;;
28844;SDS011;15976;47.938;7.758;2024-03-02T14:07:06;2.35;;;1.50;;
28844;SDS011;15976;47.938;7.758;2024-03-02T14:09:34;1.90;;;1.20;;
28844;SDS011;15976;47.938;7.758;2024-03-02T14:12:02;4.70;;;1.20;;
28844;SDS011;15976;47.938;7.758;2024-03-02T14:14:33;1.33;;;1.17;;
28844;SDS011;15976;47.938;7.758;2024-03-02T14:17:00;1.50;;;1.05;;
28844;SDS011;15976;47.938;7.758;2024-03-02T14:19:31;1.52;;;1.30;;
28844;SDS011;15976;47.938;7.758;2024-03-02T14:21:59;3.08;;;1.63;;
28844;SDS011;15976;47.938;7.758;2024-03-02T14:24:26;3.95;;;1.60;;
28844;SDS011;15976;47.938;7.758;2024-03-02T14:26:56;1.50;;;1.40;;
28844;SDS011;15976;47.938;7.758;2024-03-02T14:29:36;2.97;;;1.80;;
28844;SDS011;15976;47.938;7.758;2024-03-02T14:32:04;2.97;;;1.95;;
28844;SDS011;15976;47.938;7.758;2024-03-02T14:34:32;2.00;;;1.80;;
28844;SDS011;15976;47.938;7.758;2024-03-02T14:37:02;2.85;;;2.38;;
28844;SDS011;15976;47.938;7.758;2024-03-02T14:39:30;1.85;;;1.45;;
28844;SDS011;15976;47.938;7.758;2024-03-02T14:42:01;3.35;;;1.30;;
28844;SDS011;15976;47.938;7.758;2024-03-02T14:44:29;2.42;;;1.58;;
28844;SDS011;15976;47.938;7.758;2024-03-02T14:46:56;3.35;;;1.80;;
28844;SDS011;15976;47.938;7.758;2024-03-02T14:49:25;1.75;;;1.40;;
28844;SDS011;15976;47.938;7.758;2024-03-02T14:51:52;2.42;;;1.70;;
28844;SDS011;15976;47.938;7.758;2024-03-02T14:54:20;2.22;;;1.60;;
28844;SDS011;15976;47.938;7.758;2024-03-02T14:56:47;2.15;;;1.70;;
28844;SDS011;15976;47.938;7.758;2024-03-02T14:59:16;1.80;;;1.48;;
28844;SDS011;15976;47.938;7.758;2024-03-02T15:01:43;3.72;;;1.80;;
28844;SDS011;15976;47.938;7.758;2024-03-02T15:04:11;4.03;;;2.08;;
28844;SDS011;15976;47.938;7.758;2024-03-02T15:06:38;4.13;;;2.38;;